sensor_id;sensor_type;location;lat;lon;timestamp;pressure;altitude;pressure_sealevel;temperature;humidity
40171;BME280;37650;52.790;18.268;2023-05-22T00:01:58;101025.23;;;14.23;65.50
40171;BME280;37650;52.790;18.268;2023-05-22T00:05:19;101021.71;;;14.15;66.22
40171;BME280;37650;52.790;18.268;2023-05-22T00:08:40;101018.55;;;14.06;66.34
40171;BME280;37650;52.790;18.268;2023-05-22T00:12:00;101018.08;;;14.00;66.46
40171;BME280;37650;52.790;18.268;2023-05-22T00:15:20;101016.64;;;13.92;67.12
40171;BME280;37650;52.790;18.268;2023-05-22T00:18:41;101013.91;;;13.81;67.85
40171;BME280;37650;52.790;18.268;2023-05-22T00:22:02;101015.18;;;13.72;68.25
40171;BME280;37650;52.790;18.268;2023-05-22T00:25:22;101012.13;;;13.65;68.70
40171;BME280;37650;52.790;18.268;2023-05-22T00:28:43;101011.77;;;13.56;69.17
40171;BME280;37650;52.790;18.268;2023-05-22T00:32:04;101013.11;;;13.48;69.71
40171;BME280;37650;52.790;18.268;2023-05-22T00:35:25;101011.45;;;13.41;70.05
40171;BME280;37650;52.790;18.268;2023-05-22T00:38:46;101011.89;;;13.34;70.26
40171;BME280;37650;52.790;18.268;2023-05-22T00:42:07;101009.57;;;13.31;70.51
40171;BME280;37650;52.790;18.268;2023-05-22T00:45:28;101008.51;;;13.27;70.85
40171;BME280;37650;52.790;18.268;2023-05-22T00:48:48;101006.92;;;13.22;71.12
40171;BME280;37650;52.790;18.268;2023-05-22T00:52:10;101006.21;;;13.17;71.56
40171;BME280;37650;52.790;18.268;2023-05-22T00:55:31;101002.86;;;13.13;71.81
40171;BME280;37650;52.790;18.268;2023-05-22T00:58:52;101010.33;;;13.10;72.18
40171;BME280;37650;52.790;18.268;2023-05-22T01:02:13;101005.85;;;13.07;72.41
40171;BME280;37650;52.790;18.268;2023-05-22T01:05:36;101005.14;;;13.02;72.69
40171;BME280;37650;52.790;18.268;2023-05-22T01:08:57;100999.83;;;12.99;73.04
40171;BME280;37650;52.790;18.268;2023-05-22T01:12:54;101003.10;;;12.96;73.40
40171;BME280;37650;52.790;18.268;2023-05-22T01:31:29;101002.00;;;12.88;74.06
40171;BME280;37650;52.790;18.268;2023-05-22T01:34:53;100998.23;;;12.85;74.06
40171;BME280;37650;52.790;18.268;2023-05-22T01:38:15;101001.80;;;12.83;74.14
40171;BME280;37650;52.790;18.268;2023-05-22T01:41:36;101005.34;;;12.83;74.24
40171;BME280;37650;52.790;18.268;2023-05-22T01:44:57;101002.66;;;12.84;74.40
40171;BME280;37650;52.790;18.268;2023-05-22T01:48:18;100996.41;;;12.87;74.41
40171;BME280;37650;52.790;18.268;2023-05-22T01:55:12;100992.42;;;12.94;74.40
40171;BME280;37650;52.790;18.268;2023-05-22T01:58:53;100990.71;;;12.98;74.59
40171;BME280;37650;52.790;18.268;2023-05-22T02:02:18;100992.87;;;13.01;74.62
40171;BME280;37650;52.790;18.268;2023-05-22T02:05:39;100987.90;;;13.02;74.48
40171;BME280;37650;52.790;18.268;2023-05-22T02:09:01;100991.46;;;13.01;74.51
40171;BME280;37650;52.790;18.268;2023-05-22T02:12:24;100986.20;;;13.00;74.64
40171;BME280;37650;52.790;18.268;2023-05-22T02:15:45;100988.34;;;13.00;74.70
40171;BME280;37650;52.790;18.268;2023-05-22T02:19:06;100986.11;;;12.98;74.62
40171;BME280;37650;52.790;18.268;2023-05-22T02:22:26;100984.86;;;12.94;74.78
40171;BME280;37650;52.790;18.268;2023-05-22T02:25:46;100989.23;;;12.90;74.94
40171;BME280;37650;52.790;18.268;2023-05-22T02:29:07;100985.59;;;12.89;75.06
40171;BME280;37650;52.790;18.268;2023-05-22T02:32:27;100987.23;;;12.87;75.24
40171;BME280;37650;52.790;18.268;2023-05-22T02:35:47;100985.10;;;12.83;75.26
40171;BME280;37650;52.790;18.268;2023-05-22T02:39:07;100988.05;;;12.79;75.54
40171;BME280;37650;52.790;18.268;2023-05-22T02:42:28;100992.88;;;12.77;75.74
40171;BME280;37650;52.790;18.268;2023-05-22T02:45:48;100986.05;;;12.76;75.95
40171;BME280;37650;52.790;18.268;2023-05-22T02:49:08;100982.63;;;12.74;75.93
40171;BME280;37650;52.790;18.268;2023-05-22T02:52:29;100982.27;;;12.73;76.11
40171;BME280;37650;52.790;18.268;2023-05-22T02:55:50;100977.16;;;12.74;76.18
40171;BME280;37650;52.790;18.268;2023-05-22T02:59:11;100976.14;;;12.77;76.32
40171;BME280;37650;52.790;18.268;2023-05-22T03:02:32;100976.45;;;12.79;76.46
40171;BME280;37650;52.790;18.268;2023-05-22T03:05:52;100980.63;;;12.80;76.63
40171;BME280;37650;52.790;18.268;2023-05-22T03:09:17;100981.60;;;12.82;76.59
40171;BME280;37650;52.790;18.268;2023-05-22T03:12:39;100978.27;;;12.82;76.64
40171;BME280;37650;52.790;18.268;2023-05-22T03:15:59;100980.83;;;12.79;76.69
40171;BME280;37650;52.790;18.268;2023-05-22T03:19:22;100978.86;;;12.80;76.75
40171;BME280;37650;52.790;18.268;2023-05-22T03:22:43;100979.59;;;12.84;77.07
40171;BME280;37650;52.790;18.268;2023-05-22T03:26:03;100976.00;;;12.87;77.04
40171;BME280;37650;52.790;18.268;2023-05-22T03:29:26;100981.15;;;12.89;76.98
40171;BME280;37650;52.790;18.268;2023-05-22T03:32:46;100978.73;;;12.93;77.13
40171;BME280;37650;52.790;18.268;2023-05-22T03:36:06;100979.95;;;12.98;77.29
40171;BME280;37650;52.790;18.268;2023-05-22T03:39:28;100978.50;;;13.03;76.92
40171;BME280;37650;52.790;18.268;2023-05-22T03:42:53;100977.41;;;13.10;77.08
40171;BME280;37650;52.790;18.268;2023-05-22T03:46:14;100979.10;;;13.17;76.85
40171;BME280;37650;52.790;18.268;2023-05-22T03:49:34;100982.05;;;13.23;76.99
40171;BME280;37650;52.790;18.268;2023-05-22T03:52:55;100976.03;;;13.28;77.04
40171;BME280;37650;52.790;18.268;2023-05-22T03:56:16;100975.31;;;13.33;77.09
40171;BME280;37650;52.790;18.268;2023-05-22T03:59:36;100976.33;;;13.34;76.88
40171;BME280;37650;52.790;18.268;2023-05-22T04:02:56;100976.49;;;13.39;77.16
40171;BME280;37650;52.790;18.268;2023-05-22T04:06:19;100977.21;;;13.47;77.29
40171;BME280;37650;52.790;18.268;2023-05-22T04:09:42;100979.38;;;13.55;77.33
40171;BME280;37650;52.790;18.268;2023-05-22T04:13:03;100980.09;;;13.63;77.40
40171;BME280;37650;52.790;18.268;2023-05-22T04:16:24;100980.70;;;13.70;77.23
40171;BME280;37650;52.790;18.268;2023-05-22T04:19:45;100981.38;;;13.75;77.01
40171;BME280;37650;52.790;18.268;2023-05-22T04:23:09;100979.60;;;13.84;77.02
40171;BME280;37650;52.790;18.268;2023-05-22T04:26:45;100976.36;;;13.94;76.91
40171;BME280;37650;52.790;18.268;2023-05-22T04:30:06;100977.30;;;14.01;76.38
40171;BME280;37650;52.790;18.268;2023-05-22T04:33:28;100970.59;;;14.10;76.48
40171;BME280;37650;52.790;18.268;2023-05-22T04:36:50;100970.52;;;14.20;76.42
40171;BME280;37650;52.790;18.268;2023-05-22T04:40:11;100971.80;;;14.31;76.74
40171;BME280;37650;52.790;18.268;2023-05-22T04:43:34;100967.95;;;14.43;76.67
40171;BME280;37650;52.790;18.268;2023-05-22T04:46:55;100970.89;;;14.52;76.35
40171;BME280;37650;52.790;18.268;2023-05-22T04:50:17;100972.30;;;14.56;76.23
40171;BME280;37650;52.790;18.268;2023-05-22T04:53:38;100968.54;;;14.62;76.09
40171;BME280;37650;52.790;18.268;2023-05-22T04:57:00;100962.39;;;14.72;76.18
40171;BME280;37650;52.790;18.268;2023-05-22T05:00:24;100964.55;;;14.91;76.16
40171;BME280;37650;52.790;18.268;2023-05-22T05:03:48;100967.41;;;15.13;75.73
40171;BME280;37650;52.790;18.268;2023-05-22T05:07:08;100963.35;;;15.28;75.24
40171;BME280;37650;52.790;18.268;2023-05-22T05:10:28;100963.13;;;15.40;74.77
40171;BME280;37650;52.790;18.268;2023-05-22T05:13:50;100966.63;;;15.60;74.86
40171;BME280;37650;52.790;18.268;2023-05-22T05:17:10;100962.65;;;15.83;74.76
40171;BME280;37650;52.790;18.268;2023-05-22T05:20:31;100964.71;;;16.13;74.77
40171;BME280;37650;52.790;18.268;2023-05-22T05:23:51;100965.73;;;16.37;73.85
40171;BME280;37650;52.790;18.268;2023-05-22T05:27:12;100965.66;;;16.63;73.05
40171;BME280;37650;52.790;18.268;2023-05-22T05:30:33;100970.70;;;16.91;72.29
40171;BME280;37650;52.790;18.268;2023-05-22T05:34:05;100965.30;;;17.12;71.03
40171;BME280;37650;52.790;18.268;2023-05-22T05:37:48;100962.06;;;17.38;70.47
40171;BME280;37650;52.790;18.268;2023-05-22T05:41:09;100966.83;;;17.61;70.43
40171;BME280;37650;52.790;18.268;2023-05-22T05:44:30;100964.50;;;17.83;69.44
40171;BME280;37650;52.790;18.268;2023-05-22T05:47:52;100965.42;;;17.97;68.74
40171;BME280;37650;52.790;18.268;2023-05-22T05:51:12;100964.01;;;18.16;68.33
40171;BME280;37650;52.790;18.268;2023-05-22T05:54:35;100963.71;;;18.32;67.36
40171;BME280;37650;52.790;18.268;2023-05-22T05:58:02;100962.17;;;18.46;66.83
40171;BME280;37650;52.790;18.268;2023-05-22T06:01:33;100958.25;;;18.61;66.40
40171;BME280;37650;52.790;18.268;2023-05-22T06:04:54;100955.80;;;18.75;65.95
40171;BME280;37650;52.790;18.268;2023-05-22T06:08:15;100954.45;;;18.93;66.23
40171;BME280;37650;52.790;18.268;2023-05-22T06:11:39;100949.77;;;19.22;65.63
40171;BME280;37650;52.790;18.268;2023-05-22T06:15:00;100947.56;;;19.46;65.27
40171;BME280;37650;52.790;18.268;2023-05-22T06:18:20;100946.23;;;19.69;64.61
40171;BME280;37650;52.790;18.268;2023-05-22T06:21:42;100948.91;;;19.93;63.58
40171;BME280;37650;52.790;18.268;2023-05-22T06:25:03;100944.38;;;20.02;62.52
40171;BME280;37650;52.790;18.268;2023-05-22T06:28:26;100944.30;;;20.08;62.15
40171;BME280;37650;52.790;18.268;2023-05-22T06:31:49;100945.73;;;20.24;61.50
40171;BME280;37650;52.790;18.268;2023-05-22T06:35:11;100946.65;;;20.37;60.49
40171;BME280;37650;52.790;18.268;2023-05-22T06:38:32;100951.16;;;20.53;60.66
40171;BME280;37650;52.790;18.268;2023-05-22T06:41:53;100944.67;;;20.78;60.37
40171;BME280;37650;52.790;18.268;2023-05-22T06:45:13;100943.65;;;20.94;59.64
40171;BME280;37650;52.790;18.268;2023-05-22T06:48:48;100943.90;;;21.06;58.39
40171;BME280;37650;52.790;18.268;2023-05-22T06:52:14;100939.28;;;21.40;58.88
40171;BME280;37650;52.790;18.268;2023-05-22T06:55:36;100936.59;;;21.72;58.16
40171;BME280;37650;52.790;18.268;2023-05-22T06:59:02;100934.59;;;21.98;58.07
40171;BME280;37650;52.790;18.268;2023-05-22T07:02:44;100936.42;;;22.39;56.91
40171;BME280;37650;52.790;18.268;2023-05-22T07:06:26;100935.15;;;22.60;55.93
40171;BME280;37650;52.790;18.268;2023-05-22T07:09:46;100931.90;;;22.72;54.38
40171;BME280;37650;52.790;18.268;2023-05-22T07:13:07;100933.89;;;22.98;53.61
40171;BME280;37650;52.790;18.268;2023-05-22T07:16:29;100926.73;;;23.27;52.81
40171;BME280;37650;52.790;18.268;2023-05-22T07:19:50;100926.96;;;23.55;51.73
40171;BME280;37650;52.790;18.268;2023-05-22T07:23:11;100929.57;;;23.65;50.48
40171;BME280;37650;52.790;18.268;2023-05-22T07:26:33;100931.60;;;23.85;50.40
40171;BME280;37650;52.790;18.268;2023-05-22T07:29:57;100930.39;;;24.04;49.47
40171;BME280;37650;52.790;18.268;2023-05-22T07:33:18;100930.19;;;24.10;49.08
40171;BME280;37650;52.790;18.268;2023-05-22T07:36:39;100928.11;;;24.33;48.74
40171;BME280;37650;52.790;18.268;2023-05-22T07:40:00;100926.36;;;24.55;48.01
40171;BME280;37650;52.790;18.268;2023-05-22T07:43:23;100931.64;;;24.71;47.03
40171;BME280;37650;52.790;18.268;2023-05-22T07:46:43;100935.89;;;24.98;46.39
40171;BME280;37650;52.790;18.268;2023-05-22T07:50:08;100932.50;;;25.08;44.50
40171;BME280;37650;52.790;18.268;2023-05-22T07:53:30;100925.39;;;25.28;44.37
40171;BME280;37650;52.790;18.268;2023-05-22T07:56:52;100921.20;;;25.49;43.41
40171;BME280;37650;52.790;18.268;2023-05-22T08:00:16;100919.53;;;25.58;42.73
40171;BME280;37650;52.790;18.268;2023-05-22T08:03:36;100921.36;;;25.66;41.11
40171;BME280;37650;52.790;18.268;2023-05-22T08:06:57;100919.34;;;25.79;40.92
40171;BME280;37650;52.790;18.268;2023-05-22T08:10:18;100917.73;;;25.89;40.36
40171;BME280;37650;52.790;18.268;2023-05-22T08:13:39;100915.06;;;26.02;39.59
40171;BME280;37650;52.790;18.268;2023-05-22T08:16:59;100914.66;;;26.08;38.82
40171;BME280;37650;52.790;18.268;2023-05-22T08:20:20;100911.71;;;26.17;38.89
40171;BME280;37650;52.790;18.268;2023-05-22T08:23:41;100909.42;;;26.14;38.63
40171;BME280;37650;52.790;18.268;2023-05-22T08:27:03;100911.05;;;26.39;38.19
40171;BME280;37650;52.790;18.268;2023-05-22T08:30:24;100911.47;;;26.73;37.21
40171;BME280;37650;52.790;18.268;2023-05-22T08:33:44;100911.51;;;26.96;36.17
40171;BME280;37650;52.790;18.268;2023-05-22T08:37:05;100913.34;;;27.04;35.15
40171;BME280;37650;52.790;18.268;2023-05-22T08:40:33;100912.75;;;27.03;34.16
40171;BME280;37650;52.790;18.268;2023-05-22T08:43:55;100901.77;;;27.16;32.16
40171;BME280;37650;52.790;18.268;2023-05-22T08:47:16;100904.27;;;27.05;32.05
40171;BME280;37650;52.790;18.268;2023-05-22T08:50:41;100900.52;;;27.30;32.38
40171;BME280;37650;52.790;18.268;2023-05-22T08:54:04;100901.16;;;27.47;31.90
40171;BME280;37650;52.790;18.268;2023-05-22T08:57:26;100900.42;;;27.57;31.74
40171;BME280;37650;52.790;18.268;2023-05-22T09:00:47;100895.23;;;27.51;31.65
40171;BME280;37650;52.790;18.268;2023-05-22T09:04:08;100895.42;;;27.67;31.67
40171;BME280;37650;52.790;18.268;2023-05-22T09:07:29;100889.70;;;27.77;31.09
40171;BME280;37650;52.790;18.268;2023-05-22T09:10:50;100892.00;;;27.65;30.05
40171;BME280;37650;52.790;18.268;2023-05-22T09:14:11;100877.79;;;27.50;30.66
40171;BME280;37650;52.790;18.268;2023-05-22T09:17:32;100876.68;;;27.67;30.47
40171;BME280;37650;52.790;18.268;2023-05-22T09:20:52;100880.11;;;27.86;29.80
40171;BME280;37650;52.790;18.268;2023-05-22T09:24:13;100870.86;;;28.10;29.82
40171;BME280;37650;52.790;18.268;2023-05-22T09:27:33;100875.59;;;28.30;29.19
40171;BME280;37650;52.790;18.268;2023-05-22T09:30:54;100869.33;;;28.42;28.78
40171;BME280;37650;52.790;18.268;2023-05-22T09:34:15;100867.65;;;28.00;28.54
40171;BME280;37650;52.790;18.268;2023-05-22T09:37:37;100863.71;;;28.07;29.44
40171;BME280;37650;52.790;18.268;2023-05-22T09:40:57;100859.88;;;28.27;29.07
40171;BME280;37650;52.790;18.268;2023-05-22T09:44:17;100858.55;;;28.41;28.75
40171;BME280;37650;52.790;18.268;2023-05-22T09:47:39;100863.23;;;28.31;29.31
40171;BME280;37650;52.790;18.268;2023-05-22T09:51:00;100861.63;;;28.40;29.55
40171;BME280;37650;52.790;18.268;2023-05-22T09:54:24;100852.65;;;28.34;29.30
40171;BME280;37650;52.790;18.268;2023-05-22T09:57:45;100851.70;;;28.50;28.83
40171;BME280;37650;52.790;18.268;2023-05-22T10:01:07;100853.05;;;28.46;28.60
40171;BME280;37650;52.790;18.268;2023-05-22T10:04:32;100849.77;;;28.53;28.90
40171;BME280;37650;52.790;18.268;2023-05-22T10:07:55;100843.37;;;28.66;28.85
40171;BME280;37650;52.790;18.268;2023-05-22T10:11:16;100838.48;;;28.74;27.65
40171;BME280;37650;52.790;18.268;2023-05-22T10:14:36;100833.26;;;28.55;27.74
40171;BME280;37650;52.790;18.268;2023-05-22T10:17:57;100834.13;;;28.40;28.33
40171;BME280;37650;52.790;18.268;2023-05-22T10:21:19;100837.08;;;28.48;27.74
40171;BME280;37650;52.790;18.268;2023-05-22T10:24:40;100835.75;;;28.32;27.64
40171;BME280;37650;52.790;18.268;2023-05-22T10:28:01;100833.98;;;28.28;27.69
40171;BME280;37650;52.790;18.268;2023-05-22T10:31:44;100831.42;;;28.47;28.16
40171;BME280;37650;52.790;18.268;2023-05-22T10:41:53;100815.26;;;28.94;28.06
40171;BME280;37650;52.790;18.268;2023-05-22T10:45:15;100813.40;;;29.14;26.93
40171;BME280;37650;52.790;18.268;2023-05-22T10:48:39;100804.01;;;29.09;27.25
40171;BME280;37650;52.790;18.268;2023-05-22T10:52:01;100804.48;;;29.03;26.82
40171;BME280;37650;52.790;18.268;2023-05-22T10:55:22;100801.60;;;28.98;27.40
40171;BME280;37650;52.790;18.268;2023-05-22T10:58:45;100800.97;;;29.14;27.50
40171;BME280;37650;52.790;18.268;2023-05-22T11:02:24;100796.74;;;29.19;27.36
40171;BME280;37650;52.790;18.268;2023-05-22T11:05:51;100793.27;;;29.26;27.07
40171;BME280;37650;52.790;18.268;2023-05-22T11:09:34;100788.86;;;29.34;27.32
40171;BME280;37650;52.790;18.268;2023-05-22T11:13:01;100783.87;;;29.18;26.89
40171;BME280;37650;52.790;18.268;2023-05-22T11:16:23;100785.59;;;28.99;26.87
40171;BME280;37650;52.790;18.268;2023-05-22T11:19:47;100783.25;;;28.98;27.09
40171;BME280;37650;52.790;18.268;2023-05-22T11:23:09;100780.31;;;28.88;26.53
40171;BME280;37650;52.790;18.268;2023-05-22T11:26:30;100779.19;;;28.88;26.72
40171;BME280;37650;52.790;18.268;2023-05-22T11:29:50;100769.41;;;28.87;26.46
40171;BME280;37650;52.790;18.268;2023-05-22T11:33:11;100764.19;;;29.02;26.94
40171;BME280;37650;52.790;18.268;2023-05-22T11:36:32;100767.64;;;29.13;26.73
40171;BME280;37650;52.790;18.268;2023-05-22T11:39:59;100771.66;;;29.36;27.07
40171;BME280;37650;52.790;18.268;2023-05-22T11:43:29;100771.14;;;29.37;26.33
40171;BME280;37650;52.790;18.268;2023-05-22T11:46:55;100775.73;;;29.17;26.69
40171;BME280;37650;52.790;18.268;2023-05-22T11:50:15;100771.77;;;29.26;27.08
40171;BME280;37650;52.790;18.268;2023-05-22T11:53:36;100766.62;;;29.55;27.06
40171;BME280;37650;52.790;18.268;2023-05-22T11:56:57;100763.59;;;29.84;26.59
40171;BME280;37650;52.790;18.268;2023-05-22T12:00:18;100760.73;;;29.79;25.79
40171;BME280;37650;52.790;18.268;2023-05-22T12:03:38;100760.01;;;29.56;25.92
40171;BME280;37650;52.790;18.268;2023-05-22T12:06:59;100757.36;;;29.67;26.19
40171;BME280;37650;52.790;18.268;2023-05-22T12:10:19;100754.66;;;29.84;26.45
40171;BME280;37650;52.790;18.268;2023-05-22T12:13:39;100752.77;;;29.95;26.34
40171;BME280;37650;52.790;18.268;2023-05-22T12:17:01;100756.00;;;30.08;25.26
40171;BME280;37650;52.790;18.268;2023-05-22T12:20:28;100751.83;;;29.71;25.46
40171;BME280;37650;52.790;18.268;2023-05-22T12:23:50;100749.50;;;29.45;25.15
40171;BME280;37650;52.790;18.268;2023-05-22T12:27:10;100744.27;;;29.33;26.06
40171;BME280;37650;52.790;18.268;2023-05-22T12:30:39;100738.45;;;29.58;26.32
40171;BME280;37650;52.790;18.268;2023-05-22T12:34:03;100732.15;;;29.87;26.34
40171;BME280;37650;52.790;18.268;2023-05-22T12:37:25;100729.90;;;29.70;26.02
40171;BME280;37650;52.790;18.268;2023-05-22T12:40:49;100726.33;;;29.55;25.69
40171;BME280;37650;52.790;18.268;2023-05-22T12:44:11;100726.15;;;29.21;25.88
40171;BME280;37650;52.790;18.268;2023-05-22T12:47:31;100728.38;;;29.33;26.26
40171;BME280;37650;52.790;18.268;2023-05-22T12:50:52;100720.27;;;29.43;26.04
40171;BME280;37650;52.790;18.268;2023-05-22T12:54:12;100710.56;;;29.62;26.00
40171;BME280;37650;52.790;18.268;2023-05-22T12:57:34;100709.02;;;29.47;26.26
40171;BME280;37650;52.790;18.268;2023-05-22T13:00:54;100711.30;;;29.37;25.97
40171;BME280;37650;52.790;18.268;2023-05-22T13:04:15;100712.67;;;29.17;26.36
40171;BME280;37650;52.790;18.268;2023-05-22T13:07:36;100712.33;;;29.10;26.54
40171;BME280;37650;52.790;18.268;2023-05-22T13:10:57;100708.38;;;29.15;26.67
40171;BME280;37650;52.790;18.268;2023-05-22T13:14:17;100705.40;;;29.17;26.19
40171;BME280;37650;52.790;18.268;2023-05-22T13:17:38;100699.02;;;29.02;25.60
40171;BME280;37650;52.790;18.268;2023-05-22T13:20:58;100694.13;;;28.77;26.22
40171;BME280;37650;52.790;18.268;2023-05-22T13:24:19;100693.74;;;28.84;26.49
40171;BME280;37650;52.790;18.268;2023-05-22T13:27:40;100692.44;;;28.94;26.33
40171;BME280;37650;52.790;18.268;2023-05-22T13:31:00;100686.80;;;28.98;26.43
40171;BME280;37650;52.790;18.268;2023-05-22T13:34:20;100684.66;;;29.01;26.51
40171;BME280;37650;52.790;18.268;2023-05-22T13:37:42;100682.23;;;29.19;26.95
40171;BME280;37650;52.790;18.268;2023-05-22T13:41:02;100681.62;;;29.15;26.36
40171;BME280;37650;52.790;18.268;2023-05-22T13:44:23;100678.13;;;29.06;26.84
40171;BME280;37650;52.790;18.268;2023-05-22T13:47:45;100672.50;;;29.14;26.61
40171;BME280;37650;52.790;18.268;2023-05-22T13:51:05;100673.95;;;29.13;26.62
40171;BME280;37650;52.790;18.268;2023-05-22T13:54:26;100672.10;;;29.02;26.69
40171;BME280;37650;52.790;18.268;2023-05-22T13:57:47;100667.42;;;29.19;26.99
40171;BME280;37650;52.790;18.268;2023-05-22T14:01:08;100663.06;;;29.36;27.34
40171;BME280;37650;52.790;18.268;2023-05-22T14:04:28;100661.94;;;29.52;27.35
40171;BME280;37650;52.790;18.268;2023-05-22T14:07:49;100665.05;;;29.47;26.92
40171;BME280;37650;52.790;18.268;2023-05-22T14:11:10;100663.50;;;29.22;26.75
40171;BME280;37650;52.790;18.268;2023-05-22T14:14:30;100661.20;;;29.01;26.87
40171;BME280;37650;52.790;18.268;2023-05-22T14:17:50;100661.77;;;28.86;26.75
40171;BME280;37650;52.790;18.268;2023-05-22T14:21:11;100653.20;;;28.91;26.64
40171;BME280;37650;52.790;18.268;2023-05-22T14:24:31;100654.13;;;28.98;26.64
40171;BME280;37650;52.790;18.268;2023-05-22T14:27:51;100652.51;;;28.80;26.85
40171;BME280;37650;52.790;18.268;2023-05-22T14:31:12;100649.04;;;28.62;27.43
40171;BME280;37650;52.790;18.268;2023-05-22T14:34:33;100644.70;;;28.47;27.35
40171;BME280;37650;52.790;18.268;2023-05-22T14:37:54;100642.27;;;28.16;27.15
40171;BME280;37650;52.790;18.268;2023-05-22T14:41:14;100639.47;;;27.86;27.24
40171;BME280;37650;52.790;18.268;2023-05-22T14:44:35;100635.71;;;27.72;27.85
40171;BME280;37650;52.790;18.268;2023-05-22T14:47:55;100638.45;;;27.82;28.02
40171;BME280;37650;52.790;18.268;2023-05-22T14:51:20;100634.10;;;27.86;27.81
40171;BME280;37650;52.790;18.268;2023-05-22T14:54:40;100633.59;;;27.75;27.85
40171;BME280;37650;52.790;18.268;2023-05-22T14:58:01;100629.05;;;28.21;27.75
40171;BME280;37650;52.790;18.268;2023-05-22T15:01:22;100628.43;;;28.35;27.52
40171;BME280;37650;52.790;18.268;2023-05-22T15:04:42;100625.55;;;28.09;27.48
40171;BME280;37650;52.790;18.268;2023-05-22T15:08:04;100622.46;;;27.63;27.70
40171;BME280;37650;52.790;18.268;2023-05-22T15:11:25;100620.71;;;27.24;27.92
40171;BME280;37650;52.790;18.268;2023-05-22T15:14:46;100615.21;;;27.06;28.10
40171;BME280;37650;52.790;18.268;2023-05-22T15:18:06;100612.33;;;26.96;28.48
40171;BME280;37650;52.790;18.268;2023-05-22T15:21:26;100612.95;;;27.09;28.75
40171;BME280;37650;52.790;18.268;2023-05-22T15:24:47;100609.95;;;27.08;28.80
40171;BME280;37650;52.790;18.268;2023-05-22T15:28:08;100607.77;;;26.91;28.97
40171;BME280;37650;52.790;18.268;2023-05-22T15:31:29;100605.70;;;26.72;28.96
40171;BME280;37650;52.790;18.268;2023-05-22T15:34:49;100605.83;;;26.57;29.20
40171;BME280;37650;52.790;18.268;2023-05-22T15:38:10;100600.67;;;26.40;29.23
40171;BME280;37650;52.790;18.268;2023-05-22T15:41:32;100597.70;;;26.29;29.38
40171;BME280;37650;52.790;18.268;2023-05-22T15:44:53;100593.06;;;26.06;29.31
40171;BME280;37650;52.790;18.268;2023-05-22T15:48:13;100588.54;;;25.96;29.85
40171;BME280;37650;52.790;18.268;2023-05-22T15:51:34;100588.56;;;25.75;30.03
40171;BME280;37650;52.790;18.268;2023-05-22T15:54:55;100589.66;;;25.62;30.36
40171;BME280;37650;52.790;18.268;2023-05-22T15:58:15;100585.26;;;25.39;30.51
40171;BME280;37650;52.790;18.268;2023-05-22T16:01:36;100588.10;;;25.15;30.88
40171;BME280;37650;52.790;18.268;2023-05-22T16:04:57;100586.09;;;24.98;31.55
40171;BME280;37650;52.790;18.268;2023-05-22T16:08:18;100579.73;;;24.90;31.62
40171;BME280;37650;52.790;18.268;2023-05-22T16:11:38;100573.83;;;24.93;31.69
40171;BME280;37650;52.790;18.268;2023-05-22T16:14:58;100577.28;;;25.04;31.99
40171;BME280;37650;52.790;18.268;2023-05-22T16:18:19;100575.12;;;25.00;31.70
40171;BME280;37650;52.790;18.268;2023-05-22T16:21:42;100571.30;;;24.88;31.65
40171;BME280;37650;52.790;18.268;2023-05-22T16:25:03;100566.31;;;24.85;31.88
40171;BME280;37650;52.790;18.268;2023-05-22T16:28:24;100566.50;;;24.79;32.11
40171;BME280;37650;52.790;18.268;2023-05-22T16:31:45;100563.93;;;24.68;32.32
40171;BME280;37650;52.790;18.268;2023-05-22T16:35:06;100560.94;;;24.52;32.44
40171;BME280;37650;52.790;18.268;2023-05-22T16:38:27;100564.30;;;24.37;32.52
40171;BME280;37650;52.790;18.268;2023-05-22T16:41:47;100562.39;;;24.23;32.80
40171;BME280;37650;52.790;18.268;2023-05-22T16:45:08;100569.10;;;24.12;33.08
40171;BME280;37650;52.790;18.268;2023-05-22T16:48:28;100568.83;;;24.02;33.30
40171;BME280;37650;52.790;18.268;2023-05-22T16:51:49;100569.27;;;23.90;33.66
40171;BME280;37650;52.790;18.268;2023-05-22T16:55:09;100570.30;;;23.85;33.72
40171;BME280;37650;52.790;18.268;2023-05-22T16:58:30;100568.73;;;23.80;34.13
40171;BME280;37650;52.790;18.268;2023-05-22T17:01:51;100573.92;;;23.76;34.07
40171;BME280;37650;52.790;18.268;2023-05-22T17:05:11;100571.55;;;23.69;34.18
40171;BME280;37650;52.790;18.268;2023-05-22T17:08:32;100565.88;;;23.63;34.23
40171;BME280;37650;52.790;18.268;2023-05-22T17:11:53;100563.95;;;23.58;34.71
40171;BME280;37650;52.790;18.268;2023-05-22T17:15:14;100566.58;;;23.49;34.77
40171;BME280;37650;52.790;18.268;2023-05-22T17:18:34;100566.45;;;23.35;35.03
40171;BME280;37650;52.790;18.268;2023-05-22T17:21:57;100568.30;;;23.27;35.10
40171;BME280;37650;52.790;18.268;2023-05-22T17:25:17;100563.80;;;23.15;35.32
40171;BME280;37650;52.790;18.268;2023-05-22T17:28:38;100557.84;;;23.05;35.86
40171;BME280;37650;52.790;18.268;2023-05-22T17:31:58;100559.06;;;22.97;35.87
40171;BME280;37650;52.790;18.268;2023-05-22T17:35:19;100565.77;;;22.88;36.28
40171;BME280;37650;52.790;18.268;2023-05-22T17:38:40;100565.30;;;22.78;37.04
40171;BME280;37650;52.790;18.268;2023-05-22T17:42:00;100567.11;;;22.65;36.53
40171;BME280;37650;52.790;18.268;2023-05-22T17:45:21;100570.57;;;22.56;37.10
40171;BME280;37650;52.790;18.268;2023-05-22T17:48:41;100572.42;;;22.45;37.33